createdAt,value
2022-12-08T00:01:34.258Z,52.13
2022-12-08T00:04:03.136Z,51.47
2022-12-08T00:06:50.140Z,48.88
2022-12-08T00:09:24.376Z,45.75
2022-12-08T00:11:55.789Z,47.03
2022-12-08T00:14:29.717Z,53.38
2022-12-08T00:16:58.914Z,47.03
2022-12-08T00:19:28.336Z,50.05
2022-12-08T00:21:56.848Z,48.60
2022-12-08T00:24:31.007Z,46.28
2022-12-08T00:26:58.955Z,45.85
2022-12-08T00:29:26.869Z,49.25
2022-12-08T00:31:55.138Z,48.15
2022-12-08T00:34:23.093Z,47.08
2022-12-08T00:36:51.045Z,48.83
2022-12-08T00:39:19.265Z,43.38
2022-12-08T00:42:06.296Z,42.58
2022-12-08T00:44:34.258Z,42.72
2022-12-08T00:47:02.202Z,40.55
2022-12-08T00:49:30.014Z,41.88
2022-12-08T00:51:58.058Z,43.72
2022-12-08T00:54:25.948Z,42.15
2022-12-08T00:56:55.204Z,41.90
2022-12-08T00:59:23.169Z,37.90
2022-12-08T01:01:51.234Z,41.55
2022-12-08T01:04:20.568Z,41.30
2022-12-08T01:06:49.059Z,38.72
2022-12-08T01:09:18.388Z,36.70
2022-12-08T01:11:46.771Z,36.65
2022-12-08T01:14:16.115Z,40.65
2022-12-08T01:16:44.479Z,39.67
2022-12-08T01:19:14.310Z,40.20
2022-12-08T01:21:43.403Z,38.38
2022-12-08T01:24:13.211Z,43.47
2022-12-08T01:26:41.138Z,44.35
2022-12-08T01:29:09.688Z,38.30
2022-12-08T01:31:39.326Z,43.15
2022-12-08T01:34:08.108Z,44.58
2022-12-08T01:36:38.488Z,42.05
2022-12-08T01:39:08.885Z,38.88
2022-12-08T01:41:38.649Z,44.15
2022-12-08T01:44:39.582Z,38.25
2022-12-08T01:47:08.893Z,43.65
2022-12-08T01:49:37.670Z,38.97
2022-12-08T01:52:15.432Z,46.90
2022-12-08T01:54:48.324Z,40.53
2022-12-08T01:57:19.689Z,41.72
2022-12-08T01:59:54.150Z,39.13
2022-12-08T02:02:25.538Z,40.30
2022-12-08T02:04:53.372Z,39.28
2022-12-08T02:07:23.265Z,40.30
2022-12-08T02:09:52.681Z,32.67
2022-12-08T02:12:20.574Z,40.08
2022-12-08T02:14:48.440Z,41.03
2022-12-08T02:17:33.251Z,36.63
2022-12-08T02:20:26.021Z,34.45
2022-12-08T02:23:03.771Z,39.15
2022-12-08T02:25:41.261Z,41.33
2022-12-08T02:28:30.947Z,38.40
2022-12-08T02:31:12.976Z,41.17
2022-12-08T02:34:25.728Z,39.03
2022-12-08T02:37:04.144Z,41.28
2022-12-08T02:39:40.161Z,44.00
2022-12-08T02:42:16.080Z,44.58
2022-12-08T02:44:49.710Z,38.80
2022-12-08T02:47:20.551Z,42.50
2022-12-08T02:49:49.914Z,45.78
2022-12-08T02:52:40.044Z,42.35
2022-12-08T02:55:13.018Z,43.85
2022-12-08T02:57:47.452Z,39.78
2022-12-08T03:00:18.365Z,43.40
2022-12-08T03:02:59.648Z,40.58
2022-12-08T03:05:42.188Z,46.15
2022-12-08T03:08:17.170Z,39.83
2022-12-08T03:10:53.511Z,42.80
2022-12-08T03:13:24.659Z,40.67
2022-12-08T03:15:54.031Z,41.50
2022-12-08T03:18:28.533Z,40.80
2022-12-08T03:20:57.775Z,47.88
2022-12-08T03:23:26.548Z,38.08
2022-12-08T03:26:03.145Z,43.17
2022-12-08T03:28:31.790Z,40.80
2022-12-08T03:31:03.744Z,40.30
2022-12-08T03:33:34.254Z,43.40
2022-12-08T03:36:07.198Z,46.85
2022-12-08T03:38:39.954Z,46.05
2022-12-08T03:41:19.600Z,41.47
2022-12-08T03:43:48.627Z,41.47
2022-12-08T03:46:17.225Z,44.88
2022-12-08T03:48:45.202Z,46.25
2022-12-08T03:51:15.024Z,36.63
2022-12-08T03:53:42.957Z,46.50
2022-12-08T03:56:17.385Z,40.83
2022-12-08T03:58:45.659Z,42.72
2022-12-08T04:01:13.869Z,44.33
2022-12-08T04:03:41.782Z,39.35
2022-12-08T04:06:09.739Z,42.35
2022-12-08T04:08:39.042Z,38.08
2022-12-08T04:11:07.391Z,37.65
2022-12-08T04:13:35.649Z,37.78
2022-12-08T04:16:05.128Z,37.85
2022-12-08T04:18:33.520Z,33.05
2022-12-08T04:21:01.590Z,39.20
2022-12-08T04:23:29.968Z,40.38
2022-12-08T04:25:59.188Z,38.65
2022-12-08T04:28:29.436Z,42.63
2022-12-08T04:30:57.495Z,39.65
2022-12-08T04:33:25.643Z,42.25
2022-12-08T04:35:53.611Z,38.15
2022-12-08T04:38:21.589Z,40.33
2022-12-08T04:40:49.413Z,37.63
2022-12-08T04:43:18.660Z,39.80
2022-12-08T04:45:47.238Z,40.33
2022-12-08T04:48:15.153Z,37.63
2022-12-08T04:50:45.082Z,37.35
2022-12-08T04:53:14.327Z,38.97
2022-12-08T04:55:43.881Z,38.08
2022-12-08T04:58:14.839Z,43.10
2022-12-08T05:00:44.426Z,42.10
2022-12-08T05:03:12.889Z,38.67
2022-12-08T05:05:41.981Z,37.53
2022-12-08T05:08:10.176Z,31.25
2022-12-08T05:10:38.458Z,37.42
2022-12-08T05:13:06.365Z,35.30
2022-12-08T05:15:34.341Z,34.63
2022-12-08T05:18:03.557Z,34.55
2022-12-08T05:20:31.451Z,34.42
2022-12-08T05:22:59.296Z,35.50
2022-12-08T05:25:27.196Z,37.10
2022-12-08T05:28:06.149Z,34.95
2022-12-08T05:30:42.994Z,34.40
2022-12-08T05:33:12.274Z,33.65
2022-12-08T05:35:40.113Z,35.40
2022-12-08T05:38:08.493Z,35.45
2022-12-08T05:40:38.557Z,31.77
2022-12-08T05:43:06.528Z,35.75
2022-12-08T05:45:34.946Z,34.90
2022-12-08T05:48:03.138Z,31.20
2022-12-08T05:50:32.689Z,34.03
2022-12-08T05:53:00.533Z,34.55
2022-12-08T05:55:28.483Z,32.90
2022-12-08T05:57:56.368Z,32.45
2022-12-08T06:00:24.421Z,30.73
2022-12-08T06:02:52.396Z,27.58
2022-12-08T06:05:20.357Z,30.88
2022-12-08T06:07:49.647Z,28.58
2022-12-08T06:10:17.550Z,37.55
2022-12-08T06:12:45.557Z,31.92
2022-12-08T06:15:13.426Z,34.28
2022-12-08T06:17:41.315Z,30.83
2022-12-08T06:20:09.932Z,27.38
2022-12-08T06:22:38.527Z,27.90
2022-12-08T06:25:10.064Z,33.22
2022-12-08T06:27:38.274Z,29.83
2022-12-08T06:30:07.870Z,28.40
2022-12-08T06:32:35.951Z,34.50
2022-12-08T06:35:03.832Z,29.40
2022-12-08T06:37:31.879Z,30.63
2022-12-08T06:39:59.991Z,32.25
2022-12-08T06:42:47.350Z,30.45
2022-12-08T06:45:16.708Z,27.40
2022-12-08T06:47:44.666Z,25.88
2022-12-08T06:50:13.943Z,27.23
2022-12-08T06:52:53.047Z,29.73
2022-12-08T06:55:57.524Z,26.00
2022-12-08T06:58:15.977Z,28.88
2022-12-08T07:00:44.286Z,26.92
2022-12-08T07:03:13.528Z,25.33
2022-12-08T07:05:42.292Z,29.63
2022-12-08T07:08:10.717Z,28.10
2022-12-08T07:10:38.817Z,28.50
2022-12-08T07:13:06.707Z,29.15
2022-12-08T07:15:36.025Z,36.33
2022-12-08T07:18:03.854Z,26.30
2022-12-08T07:20:31.849Z,33.58
2022-12-08T07:22:59.790Z,26.23
2022-12-08T07:25:27.809Z,25.27
2022-12-08T07:27:55.702Z,25.08
2022-12-08T07:30:23.613Z,24.33
2022-12-08T07:32:52.817Z,28.58
2022-12-08T07:35:21.583Z,28.00
2022-12-08T07:37:50.690Z,25.23
2022-12-08T07:40:18.555Z,29.70
2022-12-08T07:42:46.391Z,30.30
2022-12-08T07:45:14.235Z,25.63
2022-12-08T07:47:42.091Z,26.92
2022-12-08T07:50:12.203Z,25.10
2022-12-08T07:52:40.027Z,23.42
2022-12-08T07:55:08.608Z,27.25
2022-12-08T07:57:36.538Z,23.58
2022-12-08T08:00:06.197Z,25.77
2022-12-08T08:02:34.409Z,22.88
2022-12-08T08:05:02.572Z,25.60
2022-12-08T08:07:33.222Z,27.50
2022-12-08T08:10:01.387Z,28.50
2022-12-08T08:12:32.126Z,24.92
2022-12-08T08:15:00.714Z,23.85
2022-12-08T08:17:28.997Z,23.63
2022-12-08T08:19:57.492Z,23.85
2022-12-08T08:22:26.115Z,24.40
2022-12-08T08:24:55.812Z,23.98
2022-12-08T08:27:24.977Z,24.90
2022-12-08T08:29:52.943Z,20.70
2022-12-08T08:32:21.677Z,20.45
2022-12-08T08:34:49.492Z,23.27
2022-12-08T08:37:17.405Z,24.67
2022-12-08T08:39:45.340Z,23.50
2022-12-08T08:42:14.625Z,22.63
2022-12-08T08:44:43.654Z,26.75
2022-12-08T08:47:12.009Z,25.42
2022-12-08T08:49:39.858Z,21.42
2022-12-08T08:52:08.256Z,19.70
2022-12-08T08:54:36.786Z,21.70
2022-12-08T08:57:05.093Z,20.35
2022-12-08T08:59:34.269Z,21.73
2022-12-08T09:02:02.277Z,24.38
2022-12-08T09:04:30.229Z,21.45
2022-12-08T09:06:58.143Z,20.92
2022-12-08T09:09:25.982Z,22.55
2022-12-08T09:11:55.300Z,20.40
2022-12-08T09:14:24.305Z,23.15
2022-12-08T09:16:53.831Z,21.65
2022-12-08T09:19:21.872Z,19.38
2022-12-08T09:21:49.774Z,24.65
2022-12-08T09:24:17.814Z,23.20
2022-12-08T09:26:46.903Z,23.08
2022-12-08T09:29:14.861Z,22.23
2022-12-08T09:31:43.067Z,19.27
2022-12-08T09:34:13.801Z,18.42
2022-12-08T09:36:41.753Z,19.98
2022-12-08T09:39:09.792Z,21.05
2022-12-08T09:41:44.781Z,19.88
2022-12-08T09:44:51.594Z,19.15
2022-12-08T09:47:26.719Z,22.63
2022-12-08T09:50:04.779Z,19.85
2022-12-08T09:52:36.601Z,20.35
2022-12-08T09:55:10.894Z,19.17
2022-12-08T09:57:38.817Z,18.38
2022-12-08T10:00:08.419Z,23.98
2022-12-08T10:02:36.604Z,22.08
2022-12-08T10:05:06.609Z,18.80
2022-12-08T10:07:44.706Z,18.95
2022-12-08T10:10:26.048Z,19.67
2022-12-08T10:13:01.489Z,21.80
2022-12-08T10:15:42.861Z,18.13
2022-12-08T10:18:15.942Z,17.80
2022-12-08T10:20:47.415Z,20.27
2022-12-08T10:23:24.597Z,21.45
2022-12-08T10:25:56.910Z,21.92
2022-12-08T10:28:24.860Z,15.30
2022-12-08T10:30:52.834Z,18.92
2022-12-08T10:33:22.006Z,21.40
2022-12-08T10:35:52.742Z,16.38
2022-12-08T10:38:24.908Z,18.90
2022-12-08T10:40:57.021Z,20.48
2022-12-08T10:43:27.093Z,16.95
2022-12-08T10:45:55.509Z,22.88
2022-12-08T10:48:26.997Z,20.15
2022-12-08T10:50:58.799Z,21.45
2022-12-08T10:53:29.749Z,22.08
2022-12-08T10:56:07.842Z,22.77
2022-12-08T10:58:40.590Z,18.58
2022-12-08T11:01:13.172Z,20.67
2022-12-08T11:03:47.196Z,19.10
2022-12-08T11:06:20.195Z,17.90
2022-12-08T11:08:51.526Z,18.55
2022-12-08T11:11:24.353Z,19.33
2022-12-08T11:13:55.569Z,25.95
2022-12-08T11:16:25.231Z,19.83
2022-12-08T11:18:58.097Z,16.45
2022-12-08T11:21:37.701Z,21.00
2022-12-08T11:24:23.002Z,20.58
2022-12-08T11:26:55.242Z,18.45
2022-12-08T11:29:23.641Z,16.73
2022-12-08T11:31:54.747Z,21.08
2022-12-08T11:34:32.646Z,21.58
2022-12-08T11:37:02.946Z,17.90
2022-12-08T11:39:35.087Z,23.27
2022-12-08T11:42:05.088Z,19.95
2022-12-08T11:44:39.783Z,21.15
2022-12-08T11:47:14.854Z,19.92
2022-12-08T11:49:44.376Z,15.52
2022-12-08T11:52:21.560Z,19.30
2022-12-08T11:54:54.613Z,17.95
2022-12-08T11:57:25.573Z,18.15
2022-12-08T11:59:57.403Z,16.98
2022-12-08T12:02:28.944Z,17.58
2022-12-08T12:05:02.125Z,13.60
2022-12-08T12:07:47.576Z,14.75
2022-12-08T12:10:42.654Z,15.43
2022-12-08T12:13:22.448Z,16.73
2022-12-08T12:16:19.127Z,17.27
2022-12-08T12:18:52.538Z,15.18
2022-12-08T12:21:23.471Z,15.88
2022-12-08T12:23:57.750Z,16.02
2022-12-08T12:26:28.033Z,16.35
2022-12-08T12:28:59.081Z,17.98
2022-12-08T12:31:30.064Z,18.25
2022-12-08T12:34:07.137Z,16.90
2022-12-08T12:36:50.382Z,18.67
2022-12-08T12:39:23.327Z,20.83
2022-12-08T12:41:54.925Z,15.13
2022-12-08T12:44:44.655Z,16.58
2022-12-08T12:47:16.384Z,16.92
2022-12-08T12:50:06.901Z,23.10
2022-12-08T12:52:48.939Z,17.38
2022-12-08T12:55:53.127Z,15.27
2022-12-08T12:58:49.417Z,17.88
2022-12-08T13:01:57.123Z,23.00
2022-12-08T13:04:34.298Z,17.77
2022-12-08T13:07:02.793Z,16.75
2022-12-08T13:09:36.424Z,13.77
2022-12-08T13:12:11.351Z,17.38
2022-12-08T13:14:48.410Z,15.40
2022-12-08T13:17:24.316Z,18.63
2022-12-08T13:19:59.415Z,15.25
2022-12-08T13:23:10.058Z,13.10
2022-12-08T13:26:19.771Z,15.98
2022-12-08T13:29:14.227Z,13.75
2022-12-08T13:31:50.181Z,13.85
2022-12-08T13:34:23.182Z,17.63
2022-12-08T13:36:58.484Z,14.27
2022-12-08T13:39:33.394Z,15.15
2022-12-08T13:42:04.862Z,14.50
2022-12-08T13:45:18.440Z,15.13
2022-12-08T13:47:34.772Z,12.73
2022-12-08T13:58:41.236Z,14.85
2022-12-08T14:01:14.889Z,12.38
2022-12-08T14:04:20.477Z,12.52
2022-12-08T14:06:40.573Z,12.38
2022-12-08T14:09:13.340Z,15.20
2022-12-08T14:11:43.971Z,16.27
2022-12-08T14:14:32.652Z,20.02
2022-12-08T14:17:11.549Z,13.15
2022-12-08T14:19:44.216Z,15.52
2022-12-08T14:22:13.793Z,16.60
2022-12-08T14:24:45.459Z,14.00
2022-12-08T14:27:21.055Z,16.90
2022-12-08T14:29:52.330Z,17.45
2022-12-08T14:32:30.333Z,19.42
2022-12-08T14:35:03.501Z,18.42
2022-12-08T14:37:34.908Z,12.00
2022-12-08T14:40:07.600Z,11.65
2022-12-08T14:42:44.785Z,16.85
2022-12-08T14:45:16.087Z,17.38
2022-12-08T14:47:44.429Z,15.57
2022-12-08T14:50:42.025Z,16.15
2022-12-08T14:53:16.470Z,16.38
2022-12-08T14:55:47.681Z,18.50
2022-12-08T14:58:20.951Z,16.40
2022-12-08T15:00:51.749Z,17.20
2022-12-08T15:03:22.778Z,16.27
2022-12-08T15:05:54.649Z,19.42
2022-12-08T15:08:23.031Z,14.82
2022-12-08T15:11:20.691Z,15.40
2022-12-08T15:13:50.756Z,17.65
2022-12-08T15:16:27.503Z,17.33
2022-12-08T15:19:19.008Z,20.50
2022-12-08T15:21:48.618Z,18.90
2022-12-08T15:24:18.129Z,16.25
2022-12-08T15:26:48.878Z,18.88
2022-12-08T15:29:21.865Z,17.98
2022-12-08T15:31:50.126Z,15.52
2022-12-08T15:34:18.193Z,15.35
2022-12-08T15:36:46.418Z,19.10
2022-12-08T15:39:26.839Z,16.65
2022-12-08T15:41:54.825Z,18.48
2022-12-08T15:44:22.932Z,21.88
2022-12-08T15:46:51.165Z,18.13
2022-12-08T15:49:20.831Z,17.77
2022-12-08T15:51:49.152Z,17.30
2022-12-08T15:54:17.601Z,18.85
2022-12-08T15:57:18.100Z,17.27
2022-12-08T15:59:38.993Z,18.50
2022-12-08T16:02:07.211Z,18.42
2022-12-08T16:05:25.289Z,16.75
2022-12-08T16:07:28.438Z,15.88
2022-12-08T16:09:57.334Z,19.60
2022-12-08T16:13:54.757Z,20.45
2022-12-08T16:15:55.126Z,17.73
2022-12-08T16:18:29.645Z,20.55
2022-12-08T16:21:09.656Z,20.50
2022-12-08T16:23:45.804Z,15.43
2022-12-08T16:26:28.428Z,20.13
2022-12-08T16:29:06.251Z,21.67
2022-12-08T16:31:34.535Z,19.00
2022-12-08T16:34:02.523Z,19.90
2022-12-08T16:36:30.506Z,21.77
2022-12-08T16:38:58.537Z,24.15
2022-12-08T16:41:43.957Z,20.08
2022-12-08T16:44:13.249Z,18.08
2022-12-08T16:46:41.255Z,20.25
2022-12-08T16:49:10.994Z,20.45
2022-12-08T16:51:38.934Z,25.20
2022-12-08T16:54:06.827Z,25.17
2022-12-08T16:56:34.802Z,29.65
2022-12-08T16:59:03.210Z,27.05
2022-12-08T17:01:32.638Z,23.67
2022-12-08T17:04:29.731Z,24.85
2022-12-08T17:06:50.971Z,20.58
2022-12-08T17:09:19.072Z,22.45
2022-12-08T17:11:47.043Z,19.73
2022-12-08T17:14:16.194Z,20.80
2022-12-08T17:16:46.091Z,24.40
2022-12-08T17:19:15.270Z,21.10
2022-12-08T17:21:43.213Z,23.95
2022-12-08T17:24:11.277Z,24.33
2022-12-08T17:26:39.115Z,25.52
2022-12-08T17:29:07.040Z,29.90
2022-12-08T17:31:35.158Z,27.55
2022-12-08T17:34:06.270Z,23.85
2022-12-08T17:36:34.127Z,25.25
2022-12-08T17:39:02.750Z,31.75
2022-12-08T17:41:31.035Z,24.27
2022-12-08T17:43:59.046Z,31.15
2022-12-08T17:46:26.996Z,25.45
2022-12-08T17:48:55.793Z,23.83
2022-12-08T17:51:25.341Z,21.55
2022-12-08T17:53:53.317Z,34.15
2022-12-08T17:56:22.440Z,25.17
2022-12-08T17:58:54.543Z,24.55
2022-12-08T18:01:23.784Z,21.48
2022-12-08T18:03:52.415Z,20.80
2022-12-08T18:06:21.114Z,21.48
2022-12-08T18:08:50.815Z,25.33
2022-12-08T18:11:22.830Z,26.75
2022-12-08T18:13:51.875Z,25.65
2022-12-08T18:16:21.236Z,26.20
2022-12-08T18:18:49.469Z,25.75
2022-12-08T18:21:23.320Z,23.08
2022-12-08T18:23:53.117Z,28.33
2022-12-08T18:26:21.616Z,28.85
2022-12-08T18:28:49.633Z,29.90
2022-12-08T18:31:20.410Z,33.35
2022-12-08T18:33:49.367Z,35.38
2022-12-08T18:36:20.729Z,30.25
2022-12-08T18:38:49.248Z,26.67
2022-12-08T18:41:23.361Z,32.38
2022-12-08T18:43:52.112Z,29.95
2022-12-08T18:46:20.135Z,31.20
2022-12-08T18:48:49.804Z,33.25
2022-12-08T18:51:19.971Z,25.38
2022-12-08T18:53:48.434Z,32.10
2022-12-08T18:56:25.417Z,33.40
2022-12-08T18:58:57.281Z,29.77
2022-12-08T19:01:27.954Z,25.67
2022-12-08T19:04:26.931Z,28.60
2022-12-08T19:06:45.223Z,27.33
2022-12-08T19:09:14.261Z,22.80
2022-12-08T19:11:44.524Z,24.80
2022-12-08T19:14:12.920Z,21.52
2022-12-08T19:16:40.831Z,22.08
2022-12-08T19:19:08.733Z,25.48
2022-12-08T19:21:42.931Z,23.27
2022-12-08T19:24:13.968Z,23.63
2022-12-08T19:26:43.439Z,24.38
2022-12-08T19:29:11.959Z,20.25
2022-12-08T19:31:40.181Z,20.80
2022-12-08T19:34:09.275Z,23.50
2022-12-08T19:36:42.333Z,31.83
2022-12-08T19:39:33.107Z,28.52
2022-12-08T19:42:20.268Z,23.27
2022-12-08T19:44:54.455Z,25.60
2022-12-08T19:47:24.011Z,30.08
2022-12-08T19:49:51.998Z,25.65
2022-12-08T19:52:20.145Z,28.30
2022-12-08T19:54:48.427Z,22.63
2022-12-08T19:57:17.770Z,30.60
2022-12-08T19:59:45.709Z,23.45
2022-12-08T20:02:13.639Z,28.40
2022-12-08T20:04:41.583Z,29.17
2022-12-08T20:07:13.437Z,23.67
2022-12-08T20:09:41.424Z,25.10
2022-12-08T20:12:09.482Z,24.38
2022-12-08T20:14:44.122Z,30.67
2022-12-08T20:17:13.913Z,21.88
2022-12-08T20:19:41.954Z,29.63
2022-12-08T20:22:09.890Z,27.00
2022-12-08T20:24:37.788Z,29.42
2022-12-08T20:27:05.747Z,25.70
2022-12-08T20:29:34.610Z,25.10
2022-12-08T20:32:04.456Z,30.00
2022-12-08T20:34:32.777Z,29.08
2022-12-08T20:37:00.656Z,26.20
2022-12-08T20:39:28.571Z,29.80
2022-12-08T20:41:56.676Z,27.95
2022-12-08T20:44:24.684Z,27.60
2022-12-08T20:46:52.781Z,29.95
2022-12-08T20:49:22.329Z,29.40
2022-12-08T20:51:50.227Z,28.40
2022-12-08T20:54:18.199Z,27.25
2022-12-08T20:56:48.539Z,25.77
2022-12-08T20:59:18.215Z,28.08
2022-12-08T21:01:46.457Z,30.73
2022-12-08T21:04:14.952Z,33.33
2022-12-08T21:06:44.424Z,27.67
2022-12-08T21:09:12.548Z,26.42
2022-12-08T21:11:40.696Z,29.00
2022-12-08T21:14:08.834Z,33.25
2022-12-08T21:16:37.447Z,24.95
2022-12-08T21:19:06.192Z,27.58
2022-12-08T21:21:34.333Z,29.70
2022-12-08T21:24:04.873Z,31.13
2022-12-08T21:26:32.792Z,28.83
2022-12-08T21:29:00.688Z,25.05
2022-12-08T21:31:31.836Z,24.83
2022-12-08T21:34:00.279Z,26.10
2022-12-08T21:36:28.636Z,24.13
2022-12-08T21:38:58.241Z,31.73
2022-12-08T21:41:45.828Z,26.85
2022-12-08T21:44:15.835Z,30.23
2022-12-08T21:46:43.833Z,28.45
2022-12-08T21:49:11.761Z,27.70
2022-12-08T21:51:42.269Z,29.00
2022-12-08T21:54:16.675Z,26.48
2022-12-08T21:56:48.807Z,28.35
2022-12-08T21:59:17.790Z,35.78
2022-12-08T22:01:45.969Z,30.35
2022-12-08T22:04:19.539Z,26.98
2022-12-08T22:06:47.733Z,31.63
2022-12-08T22:09:15.875Z,29.33
2022-12-08T22:11:44.851Z,38.38
2022-12-08T22:14:15.365Z,35.45
2022-12-08T22:16:44.195Z,36.88
2022-12-08T22:19:12.525Z,36.03
2022-12-08T22:21:41.092Z,35.95
2022-12-08T22:24:09.416Z,36.63
2022-12-08T22:26:37.498Z,33.22
2022-12-08T22:29:05.609Z,41.55
2022-12-08T22:31:35.296Z,36.70
2022-12-08T22:34:03.391Z,34.00
2022-12-08T22:36:31.595Z,34.53
2022-12-08T22:38:59.586Z,29.50
2022-12-08T22:41:27.534Z,28.52
2022-12-08T22:43:55.693Z,35.53
2022-12-08T22:46:25.337Z,31.05
2022-12-08T22:48:55.944Z,35.50
2022-12-08T22:51:24.023Z,31.17
2022-12-08T22:53:52.398Z,35.00
2022-12-08T22:56:20.846Z,40.10
2022-12-08T22:58:48.889Z,34.53
2022-12-08T23:01:29.073Z,32.30
2022-12-08T23:03:59.320Z,32.95
2022-12-08T23:06:28.669Z,30.77
2022-12-08T23:08:57.259Z,31.73
2022-12-08T23:11:27.222Z,32.10
2022-12-08T23:13:56.245Z,34.78
2022-12-08T23:16:24.520Z,34.85
2022-12-08T23:18:52.476Z,36.42
2022-12-08T23:21:22.255Z,33.13
2022-12-08T23:23:50.181Z,28.88
2022-12-08T23:26:21.550Z,34.47
2022-12-08T23:28:49.639Z,36.95
2022-12-08T23:31:18.312Z,33.53
2022-12-08T23:33:47.065Z,36.75
2022-12-08T23:36:16.072Z,35.55
2022-12-08T23:38:45.646Z,33.17
2022-12-08T23:41:15.527Z,36.88
2022-12-08T23:43:46.360Z,32.20
2022-12-08T23:46:14.454Z,35.17
2022-12-08T23:48:42.765Z,33.75
2022-12-08T23:51:10.815Z,36.13
2022-12-08T23:53:39.019Z,37.90
2022-12-08T23:56:10.592Z,31.42
2022-12-08T23:58:39.026Z,38.00
